createdAt,value
2023-05-19T00:01:14.464Z,3.47
2023-05-19T00:06:16.510Z,3.22
2023-05-19T00:11:18.415Z,3.40
2023-05-19T00:16:20.564Z,4.93
2023-05-19T00:21:22.327Z,3.78
2023-05-19T00:26:25.020Z,5.20
2023-05-19T00:31:34.374Z,3.75
2023-05-19T00:36:36.167Z,3.72
2023-05-19T00:41:37.785Z,3.83
2023-05-19T00:46:39.387Z,4.32
2023-05-19T00:51:41.164Z,5.00
2023-05-19T00:56:42.796Z,4.05
2023-05-19T01:01:44.472Z,4.80
2023-05-19T01:06:49.485Z,4.82
2023-05-19T01:11:51.132Z,4.85
2023-05-19T01:17:35.924Z,5.50
2023-05-19T01:23:05.449Z,4.40
2023-05-19T01:28:31.335Z,4.80
2023-05-19T01:33:33.936Z,5.32
2023-05-19T01:38:38.545Z,5.38
2023-05-19T01:43:40.415Z,5.30
2023-05-19T01:48:44.584Z,5.78
2023-05-19T01:53:46.222Z,4.95
2023-05-19T01:58:55.955Z,4.65
2023-05-19T02:04:25.024Z,5.68
2023-05-19T02:09:29.533Z,5.27
2023-05-19T02:14:45.561Z,5.25
2023-05-19T02:19:47.362Z,5.50
2023-05-19T02:24:49.624Z,4.88
2023-05-19T02:29:51.253Z,6.07
2023-05-19T02:34:52.821Z,6.50
2023-05-19T02:39:54.763Z,5.15
2023-05-19T02:44:56.412Z,5.70
2023-05-19T02:49:57.986Z,5.80
2023-05-19T02:54:59.628Z,6.30
2023-05-19T03:00:01.192Z,6.65
2023-05-19T03:05:03.164Z,7.43
2023-05-19T03:10:05.359Z,7.18
2023-05-19T03:15:07.377Z,6.53
2023-05-19T03:20:09.431Z,6.57
2023-05-19T03:25:11.073Z,7.03
2023-05-19T03:30:13.432Z,5.95
2023-05-19T03:35:27.799Z,6.10
2023-05-19T03:40:29.391Z,6.15
2023-05-19T03:45:37.921Z,7.32
2023-05-19T03:50:57.351Z,6.45
2023-05-19T03:56:01.606Z,7.85
2023-05-19T04:01:03.167Z,7.15
2023-05-19T04:06:05.587Z,7.05
2023-05-19T04:11:07.284Z,7.63
2023-05-19T04:16:08.966Z,8.02
2023-05-19T04:21:10.560Z,8.18
2023-05-19T04:26:13.203Z,8.75
2023-05-19T04:31:15.360Z,7.72
2023-05-19T04:36:17.949Z,7.70
2023-05-19T04:41:19.710Z,7.47
2023-05-19T04:46:21.326Z,7.95
2023-05-19T04:51:23.604Z,7.22
2023-05-19T04:56:25.549Z,6.50
2023-05-19T05:01:27.366Z,6.50
2023-05-19T05:06:30.388Z,6.53
2023-05-19T05:11:33.092Z,6.95
2023-05-19T05:16:36.265Z,5.88
2023-05-19T05:21:38.322Z,4.25
2023-05-19T05:26:43.082Z,3.55
2023-05-19T05:31:44.927Z,3.15
2023-05-19T05:36:46.614Z,2.90
2023-05-19T05:41:48.564Z,2.65
2023-05-19T05:46:51.320Z,3.38
2023-05-19T05:52:05.052Z,2.50
2023-05-19T05:57:10.833Z,4.32
2023-05-19T06:02:13.441Z,3.38
2023-05-19T06:07:15.239Z,3.03
2023-05-19T06:12:16.982Z,3.60
2023-05-19T06:17:22.681Z,2.88
2023-05-19T06:22:26.279Z,2.83
2023-05-19T06:27:28.289Z,2.53
2023-05-19T06:32:31.380Z,2.58
2023-05-19T06:37:34.368Z,1.92
2023-05-19T06:42:36.033Z,2.67
2023-05-19T06:47:55.733Z,2.00
2023-05-19T06:52:57.456Z,2.25
2023-05-19T06:58:00.596Z,2.35
2023-05-19T07:03:03.549Z,2.70
2023-05-19T07:08:05.544Z,1.80
2023-05-19T07:13:07.520Z,2.10
2023-05-19T07:18:10.906Z,1.77
2023-05-19T07:23:12.702Z,2.33
2023-05-19T07:28:14.392Z,2.00
2023-05-19T07:33:16.033Z,2.13
2023-05-19T07:38:17.730Z,1.70
2023-05-19T07:43:19.314Z,1.13
2023-05-19T07:48:20.907Z,1.52
2023-05-19T07:53:22.531Z,1.77
2023-05-19T07:58:24.114Z,1.83
2023-05-19T08:03:26.527Z,1.75
2023-05-19T08:08:28.300Z,1.95
2023-05-19T08:13:30.582Z,1.50
2023-05-19T08:18:32.177Z,1.73
2023-05-19T08:23:34.182Z,1.83
2023-05-19T08:28:35.742Z,1.80
2023-05-19T08:33:37.404Z,2.30
2023-05-19T08:38:39.320Z,1.80
2023-05-19T08:43:40.891Z,1.58
2023-05-19T08:48:44.337Z,2.33
2023-05-19T08:53:50.792Z,2.30
2023-05-19T08:58:52.983Z,1.85
2023-05-19T09:03:55.059Z,1.73
2023-05-19T09:08:56.878Z,1.58
2023-05-19T09:13:58.512Z,1.67
2023-05-19T09:19:00.332Z,2.53
2023-05-19T09:24:06.606Z,2.53
2023-05-19T09:29:16.356Z,1.95
2023-05-19T09:34:18.929Z,1.95
2023-05-19T09:39:22.942Z,1.95
2023-05-19T09:44:26.136Z,2.17
2023-05-19T09:49:29.370Z,1.65
2023-05-19T09:54:31.363Z,2.22
2023-05-19T09:59:33.950Z,2.53
2023-05-19T10:04:36.161Z,1.80
2023-05-19T10:09:39.257Z,2.33
2023-05-19T10:14:41.156Z,2.25
2023-05-19T10:19:43.798Z,1.58
2023-05-19T10:24:45.366Z,3.08
2023-05-19T10:29:49.840Z,1.67
2023-05-19T10:34:57.604Z,1.77
2023-05-19T10:40:00.050Z,1.60
2023-05-19T10:45:17.222Z,2.08
2023-05-19T10:50:20.324Z,1.77
2023-05-19T10:55:51.856Z,1.90
2023-05-19T11:01:00.801Z,1.73
2023-05-19T11:06:27.173Z,1.95
2023-05-19T11:11:46.918Z,1.90
2023-05-19T11:16:50.635Z,1.42
2023-05-19T11:21:53.359Z,1.63
2023-05-19T11:26:54.910Z,1.70
2023-05-19T11:31:56.610Z,2.30
2023-05-19T11:36:59.036Z,2.38
2023-05-19T11:42:00.633Z,1.40
2023-05-19T11:47:02.392Z,1.63
2023-05-19T11:52:04.772Z,1.73
2023-05-19T11:57:08.996Z,2.00
2023-05-19T12:02:18.092Z,2.00
2023-05-19T12:07:22.531Z,1.70
2023-05-19T12:12:24.158Z,2.90
2023-05-19T12:17:25.845Z,1.63
2023-05-19T12:22:27.548Z,1.70
2023-05-19T12:27:29.150Z,2.05
2023-05-19T12:32:33.870Z,1.42
2023-05-19T12:42:38.275Z,1.73
2023-05-19T12:47:40.056Z,1.98
2023-05-19T12:52:44.566Z,1.58
2023-05-19T12:57:50.544Z,2.17
2023-05-19T13:03:01.530Z,1.95
2023-05-19T13:08:06.284Z,1.40
2023-05-19T13:13:09.040Z,1.67
2023-05-19T13:18:12.504Z,2.00
2023-05-19T13:23:14.405Z,1.90
2023-05-19T13:28:16.136Z,1.95
2023-05-19T13:33:17.766Z,2.00
2023-05-19T13:38:19.379Z,2.50
2023-05-19T13:43:20.925Z,1.77
2023-05-19T13:48:22.568Z,1.50
2023-05-19T13:53:24.153Z,1.67
2023-05-19T13:58:25.932Z,2.08
2023-05-19T14:03:27.546Z,2.25
2023-05-19T14:08:29.230Z,3.17
2023-05-19T14:13:33.390Z,1.80
2023-05-19T14:18:36.966Z,1.80
2023-05-19T14:23:38.564Z,1.65
2023-05-19T14:28:40.440Z,1.38
2023-05-19T14:33:42.018Z,1.80
2023-05-19T14:38:43.706Z,1.98
2023-05-19T14:43:46.972Z,1.83
2023-05-19T14:48:48.681Z,2.00
2023-05-19T14:53:50.244Z,2.15
2023-05-19T14:58:51.847Z,1.70
2023-05-19T15:03:53.501Z,2.13
2023-05-19T15:08:55.289Z,2.05
2023-05-19T15:13:56.859Z,1.70
2023-05-19T15:18:58.590Z,1.50
2023-05-19T15:24:00.164Z,2.35
2023-05-19T15:29:01.835Z,2.10
2023-05-19T15:34:03.373Z,2.10
2023-05-19T15:39:04.953Z,1.50
2023-05-19T15:44:06.587Z,1.80
2023-05-19T15:49:08.168Z,1.52
2023-05-19T15:54:10.109Z,1.88
2023-05-19T15:59:11.710Z,1.15
2023-05-19T16:04:13.416Z,1.30
2023-05-19T16:09:15.127Z,2.20
2023-05-19T16:14:16.717Z,1.63
2023-05-19T16:19:18.325Z,1.88
2023-05-19T16:24:19.926Z,2.30
2023-05-19T16:29:21.638Z,1.88
2023-05-19T16:34:23.209Z,1.40
2023-05-19T16:39:24.765Z,1.90
2023-05-19T16:44:26.355Z,1.30
2023-05-19T16:49:27.905Z,1.52
2023-05-19T16:54:29.500Z,1.65
2023-05-19T16:59:31.076Z,1.45
2023-05-19T17:04:32.700Z,1.73
2023-05-19T17:09:34.369Z,1.50
2023-05-19T17:14:35.927Z,1.60
2023-05-19T17:19:37.512Z,1.42
2023-05-19T17:24:39.098Z,1.92
2023-05-19T17:29:40.768Z,1.52
2023-05-19T17:34:42.331Z,1.73
2023-05-19T17:39:43.860Z,2.00
2023-05-19T17:44:45.374Z,1.65
2023-05-19T17:49:46.929Z,1.90
2023-05-19T17:54:48.820Z,2.72
2023-05-19T17:59:50.874Z,2.05
2023-05-19T18:04:53.166Z,1.67
2023-05-19T18:09:56.062Z,1.50
2023-05-19T18:14:57.707Z,1.38
2023-05-19T18:19:59.327Z,1.45
2023-05-19T18:25:00.876Z,1.60
2023-05-19T18:30:02.631Z,1.45
2023-05-19T18:35:04.671Z,0.95
2023-05-19T18:40:07.161Z,1.30
2023-05-19T18:45:09.161Z,1.15
2023-05-19T18:50:10.852Z,1.42
2023-05-19T18:55:12.498Z,1.70
2023-05-19T19:00:14.411Z,1.63
2023-05-19T19:05:16.129Z,1.33
2023-05-19T19:10:17.804Z,1.63
2023-05-19T19:15:19.352Z,1.20
2023-05-19T19:20:20.937Z,1.42
2023-05-19T19:25:23.642Z,1.40
2023-05-19T19:30:25.419Z,1.33
2023-05-19T19:35:27.048Z,1.23
2023-05-19T19:40:28.598Z,1.58
2023-05-19T19:45:30.194Z,1.33
2023-05-19T19:50:32.442Z,1.73
2023-05-19T19:55:34.320Z,1.30
2023-05-19T20:00:35.988Z,2.13
2023-05-19T20:05:37.692Z,1.30
2023-05-19T20:10:39.278Z,1.23
2023-05-19T20:15:40.874Z,1.58
2023-05-19T20:20:42.958Z,1.40
2023-05-19T20:26:02.425Z,1.35
2023-05-19T20:31:06.131Z,1.55
2023-05-19T20:36:07.785Z,1.25
2023-05-19T20:41:09.348Z,1.60
2023-05-19T20:46:10.913Z,1.55
2023-05-19T20:51:12.531Z,1.95
2023-05-19T20:56:14.173Z,1.42
2023-05-19T21:01:15.776Z,1.60
2023-05-19T21:06:17.410Z,2.22
2023-05-19T21:11:18.975Z,1.73
2023-05-19T21:16:20.572Z,1.02
2023-05-19T21:21:22.246Z,1.58
2023-05-19T21:26:23.831Z,1.70
2023-05-19T21:31:25.449Z,1.20
2023-05-19T21:36:27.082Z,1.40
2023-05-19T21:41:28.619Z,1.80
2023-05-19T21:46:30.243Z,1.48
2023-05-19T21:51:31.899Z,1.45
2023-05-19T21:56:33.490Z,1.30
2023-05-19T22:01:35.101Z,1.50
2023-05-19T22:06:36.717Z,2.17
2023-05-19T22:11:38.969Z,1.33
2023-05-19T22:16:40.560Z,1.67
2023-05-19T22:21:42.264Z,1.50
2023-05-19T22:26:44.086Z,2.08
2023-05-19T22:31:45.889Z,1.60
2023-05-19T22:36:47.481Z,1.67
2023-05-19T22:41:49.079Z,1.52
2023-05-19T22:46:50.720Z,1.17
2023-05-19T22:51:52.267Z,1.25
2023-05-19T22:56:53.816Z,1.88
2023-05-19T23:01:55.465Z,2.17
2023-05-19T23:06:57.014Z,1.67
2023-05-19T23:11:58.744Z,1.15
2023-05-19T23:17:00.410Z,1.75
2023-05-19T23:22:02.056Z,1.30
2023-05-19T23:27:03.760Z,1.45
2023-05-19T23:32:05.624Z,1.38
2023-05-19T23:37:07.203Z,1.35
2023-05-19T23:42:08.778Z,1.73
2023-05-19T23:47:10.547Z,1.60
2023-05-19T23:52:12.266Z,1.50
2023-05-19T23:57:13.849Z,1.35
